Time;durP1;ratioP1;P1;durP2;ratioP2;P2;SDS_P1;SDS_P2;PMS_P1;PMS_P2;Temp;Humidity;BMP_temperature;BMP_pressure;BME280_temperature;BME280_humidity;BME280_pressure;Samples;Min_cycle;Max_cycle;Signal;HPM_P1;HPM_P2
2022/12/28 00:01:05;;;;;;;11.55;4.82;;;;;;;;;;2114812;28;20043;-46
2022/12/28 00:02:05;;;;;;;12.88;5.13;;;;;;;;;;2114838;28;20048;-46
2022/12/28 00:03:07;;;;;;;9.73;5.13;;;;;;;;;;2114604;28;20069;-45
2022/12/28 00:04:08;;;;;;;15.75;4.70;;;;;;;;;;2114629;28;20378;-48
2022/12/28 00:05:10;;;;;;;11.55;5.07;;;;;;;;;;2115010;28;20043;-46
2022/12/28 00:06:12;;;;;;;9.95;3.50;;;;;;;;;;2114620;28;20457;-46
2022/12/28 00:07:13;;;;;;;;;;;;;;;;;;2115282;28;20044;-46
2022/12/28 00:08:14;;;;;;;12.30;4.32;;;;;;;;;;2114826;28;19952;-46
2022/12/28 00:09:15;;;;;;;15.93;4.80;;;;;;;;;;2114707;28;20055;-47
2022/12/28 00:10:16;;;;;;;15.07;5.10;;;;;;;;;;2114614;28;20082;-46
2022/12/28 00:11:18;;;;;;;8.95;4.22;;;;;;;;;;2114674;28;20063;-46
2022/12/28 00:12:31;;;;;;;11.63;4.00;;;;;;;;;;2114726;28;20043;-46
2022/12/28 00:13:33;;;;;;;12.65;5.10;;;;;;;;;;2114683;28;20050;-46
2022/12/28 00:14:34;;;;;;;10.63;4.53;;;;;;;;;;2114642;28;20058;-45
2022/12/28 00:15:36;;;;;;;10.50;4.63;;;;;;;;;;2114201;28;20512;-45
2022/12/28 00:16:38;;;;;;;12.80;4.97;;;;;;;;;;2114600;28;20051;-46
2022/12/28 00:17:39;;;;;;;11.48;4.32;;;;;;;;;;2114881;28;20040;-45
2022/12/28 00:18:40;;;;;;;13.47;4.53;;;;;;;;;;2114511;28;20469;-45
2022/12/28 00:19:41;;;;;;;14.35;5.38;;;;;;;;;;2114579;28;20481;-46
2022/12/28 00:20:42;;;;;;;13.97;4.70;;;;;;;;;;2114829;28;20043;-46
2022/12/28 00:21:44;;;;;;;12.32;5.10;;;;;;;;;;2114674;28;20069;-46
2022/12/28 00:22:46;;;;;;;13.40;5.07;;;;;;;;;;2114698;28;20055;-46
2022/12/28 00:23:50;;;;;;;10.82;4.78;;;;;;;;;;2114522;28;20055;-45
2022/12/28 00:24:51;;;;;;;13.00;5.15;;;;;;;;;;2114621;28;20393;-47
2022/12/28 00:25:52;;;;;;;12.85;4.85;;;;;;;;;;2114532;28;20389;-46
2022/12/28 00:26:55;;;;;;;12.00;4.72;;;;;;;;;;2114718;28;20047;-45
2022/12/28 00:27:56;;;;;;;11.20;4.55;;;;;;;;;;2114545;28;20050;-45
2022/12/28 00:28:57;;;;;;;13.80;5.17;;;;;;;;;;2114583;28;20495;-47
2022/12/28 00:30:06;;;;;;;14.50;5.32;;;;;;;;;;2114593;28;20036;-45
2022/12/28 00:31:07;;;;;;;8.27;4.00;;;;;;;;;;2114567;28;20092;-46
2022/12/28 00:32:08;;;;;;;9.70;5.00;;;;;;;;;;2114535;28;20040;-45
2022/12/28 00:33:09;;;;;;;7.53;3.63;;;;;;;;;;2114616;28;20047;-45
2022/12/28 00:34:10;;;;;;;12.80;4.72;;;;;;;;;;2108270;28;20060;-45
2022/12/28 00:35:11;;;;;;;13.05;4.90;;;;;;;;;;2106060;28;20069;-46
2022/12/28 00:36:13;;;;;;;14.02;5.50;;;;;;;;;;2106069;28;20044;-45
2022/12/28 00:37:14;;;;;;;15.98;5.57;;;;;;;;;;2105961;28;20048;-47
2022/12/28 00:38:15;;;;;;;10.48;5.40;;;;;;;;;;2106004;28;20450;-45
2022/12/28 00:39:17;;;;;;;11.10;5.85;;;;;;;;;;2106022;28;20346;-46
2022/12/28 00:40:18;;;;;;;15.27;5.82;;;;;;;;;;2106212;28;20048;-47
2022/12/28 00:41:24;;;;;;;11.45;4.63;;;;;;;;;;2105367;28;20447;-46
2022/12/28 00:42:25;;;;;;;17.98;6.35;;;;;;;;;;2105648;28;20048;-46
2022/12/28 00:43:26;;;;;;;11.30;4.90;;;;;;;;;;2105818;28;20044;-45
2022/12/28 00:44:28;;;;;;;11.77;4.72;;;;;;;;;;2105981;28;20048;-46
2022/12/28 00:45:30;;;;;;;15.75;5.60;;;;;;;;;;2106074;28;20051;-45
2022/12/28 00:46:30;;;;;;;12.40;5.32;;;;;;;;;;2105920;28;20048;-46
2022/12/28 00:47:32;;;;;;;12.35;4.70;;;;;;;;;;2106330;28;20079;-45
2022/12/28 00:48:32;;;;;;;14.63;5.35;;;;;;;;;;2105961;28;20052;-46
2022/12/28 00:49:34;;;;;;;13.80;5.80;;;;;;;;;;2106023;28;20056;-46
2022/12/28 00:50:35;;;;;;;12.20;5.18;;;;;;;;;;2105926;28;20052;-46
2022/12/28 00:51:36;;;;;;;15.77;5.30;;;;;;;;;;2105969;28;20084;-45
2022/12/28 00:52:37;;;;;;;9.02;5.47;;;;;;;;;;2105837;28;20105;-45
2022/12/28 00:53:39;;;;;;;18.05;5.72;;;;;;;;;;2106020;28;20051;-46
2022/12/28 00:54:40;;;;;;;13.77;6.15;;;;;;;;;;2106068;28;20048;-46
2022/12/28 00:55:41;;;;;;;18.08;6.07;;;;;;;;;;2105865;28;20048;-46
2022/12/28 00:56:42;;;;;;;16.58;6.20;;;;;;;;;;2106172;28;20196;-45
2022/12/28 00:57:43;;;;;;;11.10;5.55;;;;;;;;;;2105931;28;20051;-46
2022/12/28 00:58:44;;;;;;;8.80;4.57;;;;;;;;;;2105829;28;20044;-46
2022/12/28 00:59:45;;;;;;;13.32;5.68;;;;;;;;;;2105882;28;20117;-46
2022/12/28 01:00:48;;;;;;;13.47;5.63;;;;;;;;;;2105884;28;20485;-45
2022/12/28 01:01:49;;;;;;;13.02;5.55;;;;;;;;;;2105886;28;20048;-45
2022/12/28 01:02:50;;;;;;;16.17;6.88;;;;;;;;;;2106032;28;20044;-45
2022/12/28 01:03:54;;;;;;;12.35;5.65;;;;;;;;;;2105875;28;20055;-45
2022/12/28 01:04:55;;;;;;;9.15;5.18;;;;;;;;;;2106106;28;20055;-47
2022/12/28 01:05:56;;;;;;;12.77;5.50;;;;;;;;;;2106064;28;20067;-46
2022/12/28 01:06:57;;;;;;;21.43;6.57;;;;;;;;;;2105914;28;20075;-45
2022/12/28 01:07:59;;;;;;;12.30;5.38;;;;;;;;;;2105956;28;20044;-45
2022/12/28 01:09:00;;;;;;;12.75;5.65;;;;;;;;;;2105755;28;20447;-47
2022/12/28 01:10:01;;;;;;;12.55;4.65;;;;;;;;;;2105821;28;20051;-47
2022/12/28 01:11:05;;;;;;;14.18;5.85;;;;;;;;;;2105885;28;20094;-46
2022/12/28 01:12:06;;;;;;;10.15;4.63;;;;;;;;;;2114336;28;20051;-47
2022/12/28 01:13:07;;;;;;;10.00;5.40;;;;;;;;;;2114224;28;20040;-45
2022/12/28 01:14:08;;;;;;;13.23;4.65;;;;;;;;;;2114359;28;20408;-46
2022/12/28 01:15:10;;;;;;;14.65;5.85;;;;;;;;;;2114375;28;20134;-45
2022/12/28 01:16:11;;;;;;;14.50;5.63;;;;;;;;;;2114262;28;20051;-46
2022/12/28 01:17:13;;;;;;;18.23;6.10;;;;;;;;;;2114618;28;20044;-46
2022/12/28 01:18:14;;;;;;;11.73;5.78;;;;;;;;;;2114109;28;20052;-45
2022/12/28 01:19:18;;;;;;;11.88;5.18;;;;;;;;;;2114138;28;20055;-45
2022/12/28 01:20:19;;;;;;;14.07;5.97;;;;;;;;;;2114398;28;20047;-46
2022/12/28 01:21:21;;;;;;;10.70;5.53;;;;;;;;;;2114288;28;20050;-46
2022/12/28 01:22:22;;;;;;;12.15;5.47;;;;;;;;;;2114182;28;20047;-46
2022/12/28 01:23:24;;;;;;;11.68;5.20;;;;;;;;;;2114141;28;20047;-45
2022/12/28 01:24:25;;;;;;;13.07;5.60;;;;;;;;;;2114188;28;20055;-45
2022/12/28 01:25:26;;;;;;;15.63;5.95;;;;;;;;;;2114224;28;20052;-45
2022/12/28 01:26:27;;;;;;;14.88;6.38;;;;;;;;;;2114353;28;20082;-45
2022/12/28 01:27:28;;;;;;;13.25;5.70;;;;;;;;;;2114299;28;20100;-45
2022/12/28 01:28:29;;;;;;;16.07;6.60;;;;;;;;;;2114217;28;20120;-47
2022/12/28 01:29:31;;;;;;;11.02;5.30;;;;;;;;;;2114051;28;20488;-47
2022/12/28 01:30:32;;;;;;;14.10;6.13;;;;;;;;;;2114139;28;20043;-45
2022/12/28 01:31:39;;;;;;;16.20;6.60;;;;;;;;;;2114086;28;20097;-45
2022/12/28 01:32:40;;;;;;;15.70;6.20;;;;;;;;;;2114325;28;20101;-45
2022/12/28 01:33:41;;;;;;;12.52;5.88;;;;;;;;;;2111959;28;20105;-45
2022/12/28 01:34:42;;;;;;;13.50;6.07;;;;;;;;;;2105784;28;20440;-46
2022/12/28 01:35:43;;;;;;;17.77;6.63;;;;;;;;;;2105701;28;20757;-46
2022/12/28 01:36:44;;;;;;;17.40;7.17;;;;;;;;;;2105897;28;20078;-45
2022/12/28 01:37:45;;;;;;;11.40;6.40;;;;;;;;;;2105804;28;20084;-45
2022/12/28 01:38:47;;;;;;;16.07;5.70;;;;;;;;;;2105813;28;20044;-46
2022/12/28 01:39:48;;;;;;;13.85;5.88;;;;;;;;;;2105705;28;20067;-43
2022/12/28 01:40:49;;;;;;;14.27;6.50;;;;;;;;;;2105693;28;20138;-46
2022/12/28 01:41:50;;;;;;;13.57;6.00;;;;;;;;;;2105687;28;20048;-45
2022/12/28 01:42:51;;;;;;;11.02;5.28;;;;;;;;;;2105698;28;20067;-45
2022/12/28 01:44:11;;;;;;;12.70;5.85;;;;;;;;;;2105592;28;20048;-46
2022/12/28 01:45:16;;;;;;;14.63;6.20;;;;;;;;;;2105859;28;20052;-46
2022/12/28 01:46:19;;;;;;;11.45;5.75;;;;;;;;;;2105869;28;20092;-46
2022/12/28 01:47:23;;;;;;;13.05;6.30;;;;;;;;;;2105613;28;20237;-46
2022/12/28 01:48:24;;;;;;;15.02;6.22;;;;;;;;;;2105556;28;20052;-47
2022/12/28 01:49:28;;;;;;;10.40;5.00;;;;;;;;;;2105652;28;20052;-45
2022/12/28 01:50:29;;;;;;;12.68;6.47;;;;;;;;;;2105578;28;20044;-46
2022/12/28 01:51:32;;;;;;;13.10;6.45;;;;;;;;;;2105600;28;20059;-46
2022/12/28 01:52:35;;;;;;;14.40;5.95;;;;;;;;;;2105659;28;20052;-45
2022/12/28 01:53:36;;;;;;;16.48;6.70;;;;;;;;;;2106591;28;20529;-45
2022/12/28 01:54:40;;;;;;;13.67;6.20;;;;;;;;;;2114730;28;20040;-45
2022/12/28 01:55:41;;;;;;;13.10;6.40;;;;;;;;;;2115571;28;20047;-43
2022/12/28 01:56:43;;;;;;;11.70;6.07;;;;;;;;;;2115427;28;20048;-45
2022/12/28 01:57:45;;;;;;;15.25;6.30;;;;;;;;;;2115617;28;20074;-44
2022/12/28 01:58:47;;;;;;;14.05;5.95;;;;;;;;;;2115578;28;20044;-44
2022/12/28 01:59:50;;;;;;;15.98;6.97;;;;;;;;;;2115534;28;20047;-45
2022/12/28 02:00:51;;;;;;;20.17;7.00;;;;;;;;;;2115638;28;20404;-44
2022/12/28 02:01:52;;;;;;;13.50;6.07;;;;;;;;;;2115650;28;20051;-44
2022/12/28 02:02:56;;;;;;;11.85;5.95;;;;;;;;;;2115511;28;20057;-45
2022/12/28 02:03:57;;;;;;;16.02;6.75;;;;;;;;;;2115325;28;20050;-45
2022/12/28 02:04:58;;;;;;;9.50;6.10;;;;;;;;;;2115556;28;20058;-45
2022/12/28 02:06:00;;;;;;;14.07;6.40;;;;;;;;;;2115568;28;20048;-44
2022/12/28 02:07:01;;;;;;;13.75;6.25;;;;;;;;;;2115624;28;20544;-44
2022/12/28 02:08:05;;;;;;;13.70;6.00;;;;;;;;;;2115277;28;20172;-43
2022/12/28 02:09:09;;;;;;;11.05;6.40;;;;;;;;;;2114213;28;20047;-45
2022/12/28 02:10:10;;;;;;;15.65;6.50;;;;;;;;;;2107557;28;20861;-45
2022/12/28 02:11:32;;;;;;;15.43;5.95;;;;;;;;;;2112226;28;20040;-45
2022/12/28 02:12:33;;;;;;;11.57;6.07;;;;;;;;;;2115441;28;20511;-44
2022/12/28 02:13:34;;;;;;;15.50;6.43;;;;;;;;;;2115329;28;20135;-44
2022/12/28 02:14:35;;;;;;;14.63;7.18;;;;;;;;;;2115662;28;20525;-45
2022/12/28 02:15:36;;;;;;;14.75;6.72;;;;;;;;;;2115496;28;20052;-45
2022/12/28 02:16:37;;;;;;;12.05;5.95;;;;;;;;;;2115440;28;20043;-45
2022/12/28 02:17:38;;;;;;;12.50;7.20;;;;;;;;;;2115344;28;20048;-46
2022/12/28 02:18:41;;;;;;;10.52;5.95;;;;;;;;;;2115396;28;20050;-44
2022/12/28 02:19:44;;;;;;;15.05;6.20;;;;;;;;;;2115528;28;20052;-45
2022/12/28 02:20:53;;;;;;;11.75;6.53;;;;;;;;;;2115488;28;20097;-44
2022/12/28 02:22:06;;;;;;;13.73;6.28;;;;;;;;;;2115353;28;20484;-46
2022/12/28 02:23:40;;;;;;;13.30;7.13;;;;;;;;;;2115278;28;20495;-46
2022/12/28 02:24:49;;;;;;;14.57;6.28;;;;;;;;;;2097682;28;20064;-45
2022/12/28 02:26:34;;;;;;;11.65;6.10;;;;;;;;;;2097654;28;20200;-46
2022/12/28 02:27:40;;;;;;;12.90;6.78;;;;;;;;;;2097508;28;20063;-45
2022/12/28 02:28:54;;;;;;;15.73;7.35;;;;;;;;;;2097524;28;20106;-44
2022/12/28 02:30:00;;;;;;;16.65;7.93;;;;;;;;;;2097431;28;20473;-45
2022/12/28 02:31:05;;;;;;;14.70;7.60;;;;;;;;;;2115463;28;20051;-46
2022/12/28 02:32:11;;;;;;;13.63;7.32;;;;;;;;;;2115341;28;20047;-45
2022/12/28 02:33:15;;;;;;;10.90;7.22;;;;;;;;;;2115218;28;20409;-46
2022/12/28 02:34:20;;;;;;;13.13;7.20;;;;;;;;;;2108174;28;20051;-44
2022/12/28 02:35:28;;;;;;;15.13;7.22;;;;;;;;;;2106869;28;20056;-46
2022/12/28 02:36:32;;;;;;;17.30;7.60;;;;;;;;;;2106970;28;20052;-46
2022/12/28 02:37:35;;;;;;;10.65;7.22;;;;;;;;;;2106792;28;20059;-47
2022/12/28 02:38:39;;;;;;;18.40;7.45;;;;;;;;;;2106711;28;20048;-45
2022/12/28 02:39:42;;;;;;;13.20;7.22;;;;;;;;;;2107124;28;20056;-45
2022/12/28 02:40:45;;;;;;;12.55;7.15;;;;;;;;;;2106807;28;20508;-44
2022/12/28 02:41:46;;;;;;;12.95;7.03;;;;;;;;;;2106833;28;20445;-44
2022/12/28 02:42:48;;;;;;;18.15;7.78;;;;;;;;;;2106807;28;20105;-44
2022/12/28 02:43:49;;;;;;;15.02;7.90;;;;;;;;;;2106745;28;20048;-45
2022/12/28 02:50:12;;;;;;;13.82;7.47;;;;;;;;;;2106829;28;20043;-45
2022/12/28 02:51:19;;;;;;;13.40;7.03;;;;;;;;;;2106778;28;20048;-45
2022/12/28 02:52:27;;;;;;;11.85;7.60;;;;;;;;;;2106822;28;20044;-45
2022/12/28 02:53:36;;;;;;;16.52;7.43;;;;;;;;;;2106699;28;20055;-45
2022/12/28 02:56:27;;;;;;;13.65;6.15;;;;;;;;;;2107004;28;20112;-45
2022/12/28 02:57:35;;;;;;;16.55;7.28;;;;;;;;;;2106748;28;20040;-45
2022/12/28 02:58:54;;;;;;;14.95;7.40;;;;;;;;;;2106590;28;20382;-45
2022/12/28 03:00:01;;;;;;;15.27;7.35;;;;;;;;;;2092987;28;20477;-44
2022/12/28 03:01:07;;;;;;;13.20;6.63;;;;;;;;;;2106684;28;20474;-44
2022/12/28 03:02:17;;;;;;;16.13;7.43;;;;;;;;;;2106693;28;20405;-45
2022/12/28 03:03:21;;;;;;;11.10;6.93;;;;;;;;;;2106551;28;20048;-44
2022/12/28 03:04:26;;;;;;;12.88;7.22;;;;;;;;;;2113625;28;20142;-44
2022/12/28 03:08:21;;;;;;;13.23;7.07;;;;;;;;;;2115064;28;20044;-44
2022/12/28 03:09:28;;;;;;;15.98;8.68;;;;;;;;;;2115044;28;20485;-44
2022/12/28 03:10:32;;;;;;;12.98;7.70;;;;;;;;;;2115037;28;20051;-45
2022/12/28 03:11:37;;;;;;;17.13;7.95;;;;;;;;;;2115069;28;20068;-45
2022/12/28 03:12:41;;;;;;;15.98;7.85;;;;;;;;;;2115301;28;20044;-43
2022/12/28 03:13:46;;;;;;;18.73;7.03;;;;;;;;;;2115102;28;20043;-43
2022/12/28 03:14:52;;;;;;;17.20;8.05;;;;;;;;;;2115064;28;20051;-43
2022/12/28 03:15:54;;;;;;;14.50;7.70;;;;;;;;;;2115236;28;20495;-44
2022/12/28 03:31:45;;;;;;;14.77;7.03;;;;;;;;;;2115135;28;20047;-44
2022/12/28 03:32:45;;;;;;;;;;;;;;;;;;2115394;28;20433;-45
2022/12/28 03:33:47;;;;;;;11.18;6.10;;;;;;;;;;2111803;28;19974;-45
2022/12/28 03:34:48;;;;;;;17.38;7.60;;;;;;;;;;2106478;28;20044;-44
2022/12/28 03:35:54;;;;;;;9.57;6.70;;;;;;;;;;2106515;28;20050;-45
2022/12/28 03:36:58;;;;;;;14.93;7.28;;;;;;;;;;2106558;28;20044;-45
2022/12/28 03:37:59;;;;;;;13.38;7.68;;;;;;;;;;2106453;28;20044;-45
2022/12/28 03:39:02;;;;;;;13.85;8.05;;;;;;;;;;2106556;28;20055;-45
2022/12/28 03:40:07;;;;;;;19.42;8.15;;;;;;;;;;2106364;28;20193;-44
2022/12/28 03:41:09;;;;;;;12.30;7.43;;;;;;;;;;2106596;28;20101;-45
2022/12/28 03:43:42;;;;;;;14.68;6.78;;;;;;;;;;2106561;28;20044;-44
2022/12/28 03:44:46;;;;;;;13.50;7.78;;;;;;;;;;2106752;28;20040;-44
2022/12/28 03:45:50;;;;;;;11.80;7.55;;;;;;;;;;2106394;28;20496;-44
2022/12/28 03:46:54;;;;;;;12.30;6.97;;;;;;;;;;2106607;28;20047;-45
2022/12/28 03:47:56;;;;;;;17.30;7.60;;;;;;;;;;2106551;28;20047;-44
2022/12/28 03:48:57;;;;;;;13.20;7.72;;;;;;;;;;2106516;28;20358;-45
2022/12/28 03:49:59;;;;;;;14.45;7.78;;;;;;;;;;2106538;28;20044;-45
2022/12/28 03:51:00;;;;;;;14.65;7.45;;;;;;;;;;2106276;28;20074;-44
2022/12/28 03:52:01;;;;;;;12.18;7.72;;;;;;;;;;2106363;28;20488;-45
2022/12/28 03:53:02;;;;;;;13.57;7.32;;;;;;;;;;2106465;28;20284;-45
2022/12/28 03:54:04;;;;;;;13.13;7.27;;;;;;;;;;2106396;28;20036;-44
2022/12/28 03:55:05;;;;;;;14.68;7.40;;;;;;;;;;2106829;28;20288;-44
2022/12/28 03:56:07;;;;;;;14.48;7.70;;;;;;;;;;2106478;28;20051;-45
2022/12/28 03:57:08;;;;;;;18.02;6.30;;;;;;;;;;2106520;28;20044;-44
2022/12/28 03:58:09;;;;;;;15.70;7.37;;;;;;;;;;2106309;28;20043;-44
2022/12/28 03:59:10;;;;;;;10.98;6.93;;;;;;;;;;2106504;28;20146;-44
2022/12/28 04:00:11;;;;;;;13.23;7.20;;;;;;;;;;2110230;28;20455;-44
2022/12/28 04:01:13;;;;;;;13.48;6.95;;;;;;;;;;2114827;28;20047;-44
2022/12/28 04:02:15;;;;;;;16.80;7.15;;;;;;;;;;2114837;28;20051;-45
2022/12/28 04:03:15;;;;;;;;;;;;;;;;;;2115330;28;20052;-44
2022/12/28 04:04:17;;;;;;;8.52;5.47;;;;;;;;;;2114692;28;20015;-45
2022/12/28 04:05:17;;;;;;;12.85;7.32;;;;;;;;;;2114797;28;20108;-44
2022/12/28 04:06:19;;;;;;;12.57;7.68;;;;;;;;;;2114774;28;20224;-45
2022/12/28 04:07:20;;;;;;;14.73;7.00;;;;;;;;;;2114742;28;20044;-45
2022/12/28 04:08:21;;;;;;;12.88;7.68;;;;;;;;;;2114764;28;20051;-44
2022/12/28 04:09:22;;;;;;;13.07;7.45;;;;;;;;;;2114751;28;20043;-45
2022/12/28 04:10:23;;;;;;;9.27;7.10;;;;;;;;;;2114799;28;20146;-46
2022/12/28 04:11:24;;;;;;;12.75;7.45;;;;;;;;;;2114561;28;20039;-44
2022/12/28 04:12:25;;;;;;;9.03;6.17;;;;;;;;;;2114788;28;20054;-44
2022/12/28 04:13:27;;;;;;;12.32;7.35;;;;;;;;;;2114473;28;20043;-44
2022/12/28 04:14:28;;;;;;;;;;;;;;;;;;2115274;28;20047;-44
2022/12/28 04:15:29;;;;;;;9.90;5.68;;;;;;;;;;2114669;28;19920;-44
2022/12/28 04:16:30;;;;;;;12.88;6.95;;;;;;;;;;2114398;28;20132;-45
2022/12/28 04:17:32;;;;;;;12.32;7.40;;;;;;;;;;2114698;28;20052;-45
2022/12/28 04:18:33;;;;;;;17.27;8.27;;;;;;;;;;2114661;28;20097;-45
2022/12/28 04:19:34;;;;;;;13.82;7.05;;;;;;;;;;2114707;28;20058;-45
2022/12/28 04:20:35;;;;;;;12.32;7.22;;;;;;;;;;2114752;28;20142;-44
2022/12/28 04:21:36;;;;;;;12.60;7.38;;;;;;;;;;2114560;28;20396;-45
2022/12/28 04:22:37;;;;;;;10.55;7.18;;;;;;;;;;2114571;28;20059;-45
2022/12/28 04:23:39;;;;;;;15.07;8.23;;;;;;;;;;2114657;28;20054;-45
2022/12/28 04:24:40;;;;;;;15.18;7.63;;;;;;;;;;2114588;28;20069;-44
2022/12/28 04:25:41;;;;;;;12.48;7.88;;;;;;;;;;2114780;28;20047;-44
2022/12/28 04:26:42;;;;;;;11.33;7.33;;;;;;;;;;2114675;28;20090;-44
2022/12/28 04:27:43;;;;;;;11.05;6.80;;;;;;;;;;2114514;28;20092;-45
2022/12/28 04:28:44;;;;;;;14.48;8.18;;;;;;;;;;2114619;28;20059;-47
2022/12/28 04:29:45;;;;;;;17.13;7.70;;;;;;;;;;2114754;28;20054;-44
2022/12/28 04:30:46;;;;;;;16.60;7.87;;;;;;;;;;2114521;28;20051;-45
2022/12/28 04:31:47;;;;;;;13.90;7.00;;;;;;;;;;2114627;28;20092;-46
2022/12/28 04:32:49;;;;;;;13.50;7.28;;;;;;;;;;2114726;28;20054;-44
2022/12/28 04:33:49;;;;;;;14.20;7.65;;;;;;;;;;2110987;28;20044;-44
2022/12/28 04:34:51;;;;;;;17.38;7.53;;;;;;;;;;2106225;28;20123;-45
2022/12/28 04:35:52;;;;;;;15.02;7.68;;;;;;;;;;2106118;28;20092;-46
2022/12/28 04:36:53;;;;;;;11.43;7.30;;;;;;;;;;2106132;28;20051;-45
2022/12/28 04:37:54;;;;;;;12.13;8.07;;;;;;;;;;2106093;28;20044;-44
2022/12/28 04:38:55;;;;;;;11.97;8.13;;;;;;;;;;2106197;28;20046;-44
2022/12/28 04:39:56;;;;;;;16.02;7.78;;;;;;;;;;2106136;28;20127;-44
2022/12/28 04:40:58;;;;;;;11.57;7.35;;;;;;;;;;2106163;28;20040;-44
2022/12/28 04:41:59;;;;;;;14.93;8.02;;;;;;;;;;2106297;28;20508;-44
2022/12/28 04:43:00;;;;;;;11.77;7.80;;;;;;;;;;2106012;28;20055;-45
2022/12/28 04:44:01;;;;;;;13.88;8.02;;;;;;;;;;2105986;28;20051;-44
2022/12/28 04:45:02;;;;;;;12.23;7.65;;;;;;;;;;2106313;28;20409;-44
2022/12/28 04:46:05;;;;;;;13.93;8.45;;;;;;;;;;2106172;28;20049;-43
2022/12/28 04:47:06;;;;;;;16.85;8.55;;;;;;;;;;2106225;28;20048;-44
2022/12/28 04:48:08;;;;;;;12.88;7.97;;;;;;;;;;2106063;28;20043;-45
2022/12/28 04:49:09;;;;;;;12.02;8.10;;;;;;;;;;2106121;28;20039;-46
2022/12/28 04:50:10;;;;;;;17.10;8.70;;;;;;;;;;2106313;28;20048;-46
2022/12/28 04:51:17;;;;;;;15.10;8.70;;;;;;;;;;2106089;28;20044;-45
2022/12/28 04:52:18;;;;;;;14.20;8.88;;;;;;;;;;2106171;28;20056;-46
2022/12/28 04:53:19;;;;;;;14.87;9.37;;;;;;;;;;2106076;28;20051;-46
2022/12/28 04:54:20;;;;;;;15.55;8.57;;;;;;;;;;2106150;28;20048;-46
2022/12/28 04:55:21;;;;;;;15.87;8.83;;;;;;;;;;2106070;28;20485;-49
2022/12/28 04:56:33;;;;;;;;;;;;;;;;;;2111034;28;20359;-47
2022/12/28 04:57:34;;;;;;;15.30;6.35;;;;;;;;;;2114484;28;20000;-49
2022/12/28 04:58:36;;;;;;;13.57;8.13;;;;;;;;;;2114377;28;20468;-48
2022/12/28 04:59:39;;;;;;;16.73;8.63;;;;;;;;;;2114551;28;20048;-46
2022/12/28 05:00:40;;;;;;;13.40;8.75;;;;;;;;;;2114337;28;20043;-47
2022/12/28 05:01:41;;;;;;;14.85;8.63;;;;;;;;;;2114387;28;20039;-46
2022/12/28 05:02:42;;;;;;;13.20;7.97;;;;;;;;;;2114393;28;20465;-47
2022/12/28 05:03:48;;;;;;;14.02;8.10;;;;;;;;;;2114358;28;20080;-47
2022/12/28 05:04:57;;;;;;;10.57;6.38;;;;;;;;;;2114423;28;20036;-47
2022/12/28 05:05:59;;;;;;;12.52;8.10;;;;;;;;;;2114469;28;20048;-46
2022/12/28 05:07:00;;;;;;;16.10;9.00;;;;;;;;;;2114483;28;20040;-47
2022/12/28 05:08:01;;;;;;;13.75;7.97;;;;;;;;;;2114556;28;20035;-46
2022/12/28 05:09:02;;;;;;;15.18;8.32;;;;;;;;;;2114405;28;20399;-47
2022/12/28 05:10:04;;;;;;;17.35;8.73;;;;;;;;;;2114219;28;20507;-47
2022/12/28 05:11:06;;;;;;;14.50;7.80;;;;;;;;;;2114273;28;20056;-47
2022/12/28 05:12:07;;;;;;;11.30;8.27;;;;;;;;;;2114259;28;20043;-47
2022/12/28 05:13:08;;;;;;;14.53;9.77;;;;;;;;;;2114373;28;20052;-47
2022/12/28 05:14:09;;;;;;;15.18;8.77;;;;;;;;;;2114108;28;20043;-47
2022/12/28 05:15:10;;;;;;;13.15;9.13;;;;;;;;;;2114351;28;20047;-47
2022/12/28 05:16:12;;;;;;;13.60;8.85;;;;;;;;;;2114297;28;20059;-47
2022/12/28 05:17:13;;;;;;;;;;;;;;;;;;2115046;28;20070;-47
2022/12/28 05:18:14;;;;;;;11.02;7.43;;;;;;;;;;2114140;28;19927;-48
2022/12/28 05:19:16;;;;;;;12.63;8.30;;;;;;;;;;2114437;28;20047;-47
2022/12/28 05:20:19;;;;;;;13.35;8.30;;;;;;;;;;2114308;28;20153;-48
2022/12/28 05:21:21;;;;;;;12.73;8.65;;;;;;;;;;2114386;28;20055;-47
2022/12/28 05:22:21;;;;;;;17.30;8.80;;;;;;;;;;2114454;28;20058;-47
2022/12/28 05:23:23;;;;;;;16.40;8.10;;;;;;;;;;2114184;28;20046;-47
2022/12/28 05:24:23;;;;;;;14.77;8.40;;;;;;;;;;2114271;28;20552;-47
2022/12/28 05:25:25;;;;;;;15.73;8.53;;;;;;;;;;2114305;28;20051;-48
2022/12/28 05:26:27;;;;;;;13.68;8.65;;;;;;;;;;2114245;28;20052;-48
2022/12/28 05:27:28;;;;;;;12.98;8.65;;;;;;;;;;2113960;28;20059;-47
2022/12/28 05:28:29;;;;;;;10.68;6.68;;;;;;;;;;2113682;28;20420;-47
2022/12/28 05:29:30;;;;;;;14.35;7.60;;;;;;;;;;2114256;28;20052;-48
2022/12/28 05:30:31;;;;;;;14.02;8.63;;;;;;;;;;2114254;28;20105;-47
2022/12/28 05:31:32;;;;;;;12.50;7.97;;;;;;;;;;2114262;28;20043;-46
2022/12/28 05:32:33;;;;;;;12.32;8.07;;;;;;;;;;2114107;28;20044;-46
2022/12/28 05:33:35;;;;;;;15.32;8.88;;;;;;;;;;2112991;28;20101;-46
2022/12/28 05:34:36;;;;;;;11.07;7.78;;;;;;;;;;2105754;28;20408;-46
2022/12/28 05:35:37;;;;;;;12.90;8.60;;;;;;;;;;2105616;28;20052;-47
2022/12/28 05:36:38;;;;;;;13.38;8.25;;;;;;;;;;2105966;28;20059;-47
2022/12/28 05:37:39;;;;;;;13.90;8.35;;;;;;;;;;2105992;28;20044;-46
2022/12/28 05:38:41;;;;;;;13.52;9.43;;;;;;;;;;2105678;28;20108;-47
2022/12/28 05:39:42;;;;;;;14.48;9.27;;;;;;;;;;2105802;28;20048;-47
2022/12/28 05:40:43;;;;;;;17.63;9.68;;;;;;;;;;2105721;28;20404;-47
2022/12/28 05:41:44;;;;;;;16.55;10.65;;;;;;;;;;2105640;28;20052;-47
2022/12/28 05:42:45;;;;;;;16.00;10.57;;;;;;;;;;2106056;28;20105;-46
2022/12/28 05:43:52;;;;;;;17.77;10.40;;;;;;;;;;2105759;28;20044;-46
2022/12/28 05:44:53;;;;;;;21.40;12.18;;;;;;;;;;2105780;28;20048;-46
2022/12/28 05:45:59;;;;;;;18.80;11.18;;;;;;;;;;2105596;28;20044;-47
2022/12/28 05:47:00;;;;;;;15.50;9.57;;;;;;;;;;2105812;28;20048;-47
2022/12/28 05:48:01;;;;;;;18.97;11.57;;;;;;;;;;2105630;28;20479;-47
2022/12/28 05:49:02;;;;;;;19.50;10.90;;;;;;;;;;2105585;28;20378;-46
2022/12/28 05:50:05;;;;;;;20.45;11.75;;;;;;;;;;2106021;28;20689;-46
2022/12/28 05:51:07;;;;;;;23.00;12.52;;;;;;;;;;2105701;28;20094;-47
2022/12/28 05:52:08;;;;;;;21.25;12.70;;;;;;;;;;2105592;28;20489;-47
2022/12/28 05:53:09;;;;;;;17.70;11.50;;;;;;;;;;2113379;28;20047;-46
2022/12/28 05:54:10;;;;;;;20.53;11.67;;;;;;;;;;2114159;28;20396;-47
2022/12/28 05:55:11;;;;;;;18.73;12.35;;;;;;;;;;2114291;28;20496;-47
2022/12/28 05:56:13;;;;;;;20.27;11.97;;;;;;;;;;2114422;28;20050;-47
2022/12/28 05:57:15;;;;;;;18.20;11.68;;;;;;;;;;2114260;28;20051;-46
2022/12/28 05:58:16;;;;;;;23.47;10.60;;;;;;;;;;2113987;28;20054;-48
2022/12/28 05:59:17;;;;;;;18.15;10.40;;;;;;;;;;2114199;28;20048;-46
2022/12/28 06:00:18;;;;;;;17.52;10.85;;;;;;;;;;2114328;28;20108;-47
2022/12/28 06:01:21;;;;;;;21.40;10.57;;;;;;;;;;2114028;28;20054;-46
2022/12/28 06:02:26;;;;;;;14.23;9.63;;;;;;;;;;2114092;28;20408;-45
2022/12/28 06:03:27;;;;;;;14.57;10.00;;;;;;;;;;2114055;28;20380;-47
2022/12/28 06:04:28;;;;;;;17.23;9.77;;;;;;;;;;2114162;28;20135;-48
2022/12/28 06:05:30;;;;;;;19.25;9.63;;;;;;;;;;2114100;28;20039;-46
2022/12/28 06:06:31;;;;;;;13.50;8.38;;;;;;;;;;2114178;28;20527;-46
2022/12/28 06:07:32;;;;;;;13.00;8.77;;;;;;;;;;2114034;28;20396;-46
2022/12/28 06:08:33;;;;;;;15.48;9.60;;;;;;;;;;2113927;28;20071;-46
2022/12/28 06:09:34;;;;;;;16.27;9.57;;;;;;;;;;2114320;28;20062;-47
2022/12/28 06:10:35;;;;;;;15.38;8.82;;;;;;;;;;2114023;28;20130;-47
2022/12/28 06:11:36;;;;;;;14.32;9.88;;;;;;;;;;2113912;28;20044;-47
2022/12/28 06:12:38;;;;;;;13.30;8.23;;;;;;;;;;2114163;28;20126;-46
2022/12/28 06:13:39;;;;;;;13.48;8.80;;;;;;;;;;2113922;28;20052;-46
2022/12/28 06:14:40;;;;;;;11.30;7.35;;;;;;;;;;2114248;28;20047;-47
2022/12/28 06:15:40;;;;;;;16.23;7.97;;;;;;;;;;2114239;28;20061;-46
2022/12/28 06:16:42;;;;;;;14.15;8.45;;;;;;;;;;2114274;28;20054;-47
2022/12/28 06:17:43;;;;;;;13.73;8.40;;;;;;;;;;2114089;28;20043;-48
2022/12/28 06:18:44;;;;;;;13.20;8.43;;;;;;;;;;2114065;28;20051;-51
2022/12/28 06:19:45;;;;;;;17.27;9.52;;;;;;;;;;2113933;28;20073;-47
2022/12/28 06:20:47;;;;;;;12.77;8.17;;;;;;;;;;2114109;28;20051;-48
2022/12/28 06:21:56;;;;;;;15.20;9.02;;;;;;;;;;2114497;28;20505;-49
2022/12/28 06:22:56;;;;;;;13.52;8.88;;;;;;;;;;2114490;28;20047;-47
2022/12/28 06:23:58;;;;;;;16.52;8.25;;;;;;;;;;2113766;28;20404;-49
2022/12/28 06:24:59;;;;;;;17.88;9.18;;;;;;;;;;2114143;28;20135;-50
2022/12/28 06:26:01;;;;;;;15.15;8.20;;;;;;;;;;2113966;28;20043;-47
2022/12/28 06:27:02;;;;;;;12.68;6.93;;;;;;;;;;2113980;28;20503;-46
2022/12/28 06:28:05;;;;;;;13.07;8.18;;;;;;;;;;2114121;28;20054;-47
2022/12/28 06:29:06;;;;;;;15.30;8.02;;;;;;;;;;2113920;28;20506;-47
2022/12/28 06:30:08;;;;;;;15.38;7.65;;;;;;;;;;2113936;28;20126;-48
2022/12/28 06:31:10;;;;;;;11.40;8.45;;;;;;;;;;2113947;28;20040;-47
2022/12/28 06:32:11;;;;;;;15.18;8.35;;;;;;;;;;2114082;28;20450;-47
2022/12/28 06:33:12;;;;;;;14.93;8.27;;;;;;;;;;2113772;28;20088;-47
2022/12/28 06:34:13;;;;;;;14.85;7.50;;;;;;;;;;2107188;28;20054;-46
2022/12/28 06:35:14;;;;;;;11.20;7.80;;;;;;;;;;2105460;28;20051;-46
2022/12/28 06:36:16;;;;;;;9.73;6.68;;;;;;;;;;2105598;28;20511;-49